Time;durP1;ratioP1;P1;durP2;ratioP2;P2;SDS_P1;SDS_P2;PMS_P1;PMS_P2;Temp;Humidity;BMP_temperature;BMP_pressure;BME280_temperature;BME280_humidity;BME280_pressure;Samples;Min_cycle;Max_cycle;Signal;HPM_P1;HPM_P2
2021/01/13 00:01:50;;;;;;;28.32;15.13;;;;;;;1.34;57.05;100324.36;1741422;82;21331;-55
2021/01/13 00:04:56;;;;;;;22.02;12.98;;;;;;;1.36;57.03;100273.84;1741448;82;21209;-54
2021/01/13 00:08:02;;;;;;;23.25;14.20;;;;;;;1.35;57.05;100270.79;1741438;82;21208;-55
2021/01/13 00:11:08;;;;;;;21.73;12.05;;;;;;;1.33;57.11;100301.05;1741028;81;21244;-55
2021/01/13 00:14:16;;;;;;;24.25;13.50;;;;;;;1.35;57.19;100319.33;1736666;82;21225;-55
2021/01/13 00:17:22;;;;;;;26.48;12.60;;;;;;;1.40;57.21;100325.70;1736774;82;21279;-55
2021/01/13 00:20:29;;;;;;;19.65;11.57;;;;;;;1.41;57.20;100329.63;1736759;82;21212;-54
2021/01/13 00:23:34;;;;;;;17.98;11.40;;;;;;;1.46;57.07;100313.08;1736729;82;21239;-55
2021/01/13 00:26:41;;;;;;;18.05;11.15;;;;;;;1.46;56.90;100322.52;1736648;82;21220;-54
2021/01/13 00:29:45;;;;;;;22.52;12.30;;;;;;;1.47;56.99;100312.95;1736663;82;21259;-54
2021/01/13 00:32:52;;;;;;;17.65;11.55;;;;;;;1.51;56.97;100286.61;1736696;82;21209;-55
2021/01/13 00:35:58;;;;;;;17.90;11.48;;;;;;;1.56;57.03;100258.80;1736790;82;21240;-54
2021/01/13 00:39:05;;;;;;;16.70;11.93;;;;;;;1.59;56.87;100242.36;1736698;82;21279;-55
2021/01/13 00:42:11;;;;;;;19.07;11.05;;;;;;;1.60;56.71;100234.66;1736690;82;21201;-55
2021/01/13 00:45:19;;;;;;;20.57;12.40;;;;;;;1.57;56.62;100252.41;1736721;82;21753;-55
2021/01/13 00:48:25;;;;;;;19.87;12.43;;;;;;;1.55;56.68;100255.74;1736633;82;21265;-55
2021/01/13 00:51:31;;;;;;;23.27;13.45;;;;;;;1.49;56.66;100243.59;1736814;82;21754;-55
2021/01/13 00:54:35;;;;;;;19.73;12.18;;;;;;;1.51;56.89;100241.63;1702077;82;21409;-55
2021/01/13 00:57:42;;;;;;;21.87;14.90;;;;;;;1.50;57.01;100239.06;1736709;82;21232;-56
2021/01/13 01:00:47;;;;;;;21.17;14.10;;;;;;;1.47;57.01;100254.97;1736763;82;21212;-55
2021/01/13 01:03:56;;;;;;;28.32;15.32;;;;;;;1.46;57.12;100249.70;1736710;82;21662;-54
2021/01/13 01:07:05;;;;;;;25.12;14.98;;;;;;;1.41;57.13;100236.59;1736654;82;21300;-54
2021/01/13 01:10:09;;;;;;;23.62;15.32;;;;;;;1.38;57.38;100223.36;1736657;82;21218;-55
2021/01/13 01:13:15;;;;;;;23.83;15.48;;;;;;;1.38;57.51;100192.83;1737058;81;21220;-55
2021/01/13 01:16:22;;;;;;;22.52;14.47;;;;;;;1.40;57.65;100197.61;1738361;82;21227;-55
2021/01/13 01:19:28;;;;;;;24.02;14.87;;;;;;;1.46;57.68;100183.63;1738417;82;21959;-56
2021/01/13 01:22:34;;;;;;;21.65;13.53;;;;;;;1.42;57.49;100177.66;1738633;82;21359;-55
2021/01/13 01:25:40;;;;;;;23.95;14.38;;;;;;;1.36;57.45;100168.69;1738570;82;21260;-55
2021/01/13 01:28:47;;;;;;;23.20;13.28;;;;;;;1.36;57.44;100157.90;1738482;82;21385;-54
2021/01/13 01:31:57;;;;;;;24.32;14.23;;;;;;;1.37;57.18;100179.86;1738494;82;21707;-54
2021/01/13 01:35:04;;;;;;;24.82;13.78;;;;;;;1.35;57.37;100193.08;1738477;82;21263;-55
2021/01/13 01:38:11;;;;;;;22.17;13.35;;;;;;;1.41;57.47;100188.05;1738498;82;21280;-54
2021/01/13 01:41:18;;;;;;;23.90;13.68;;;;;;;1.46;57.23;100163.41;1738489;82;21254;-55
2021/01/13 01:44:23;;;;;;;33.35;14.15;;;;;;;1.50;57.27;100157.67;1738573;82;21228;-55
2021/01/13 01:47:32;;;;;;;24.52;13.18;;;;;;;1.50;56.97;100140.14;1738550;82;21256;-55
2021/01/13 01:50:52;;;;;;;23.67;13.45;;;;;;;1.51;57.02;100121.61;1723532;82;21324;-55
2021/01/13 01:54:11;;;;;;;25.32;12.18;;;;;;;1.50;56.94;100125.31;1738578;82;21275;-54
2021/01/13 01:57:16;;;;;;;23.07;12.00;;;;;;;1.42;56.73;100144.43;1738441;82;21291;-54
2021/01/13 02:00:30;;;;;;;19.52;12.00;;;;;;;1.29;57.09;100154.48;1738560;82;21467;-54
2021/01/13 02:03:39;;;;;;;21.45;12.37;;;;;;;1.25;57.60;100143.08;1738613;82;21333;-54
2021/01/13 02:07:07;;;;;;;20.85;12.95;;;;;;;1.30;58.08;100136.00;1738635;82;21212;-54
2021/01/13 02:10:13;;;;;;;21.42;11.83;;;;;;;1.28;58.67;100136.59;1738353;82;21348;-55
2021/01/13 02:13:22;;;;;;;21.25;11.75;;;;;;;1.28;59.15;100132.08;1737769;82;21221;-55
2021/01/13 02:16:27;;;;;;;24.18;11.60;;;;;;;1.27;59.55;100124.95;1682316;85;21325;-55
2021/01/13 02:19:58;;;;;;;19.98;11.38;;;;;;;1.29;59.91;100130.22;1724236;83;21422;-55
2021/01/13 02:23:11;;;;;;;20.60;10.67;;;;;;;1.26;60.01;100132.68;1724538;83;21383;-55
2021/01/13 02:27:06;;;;;;;19.73;10.63;;;;;;;1.11;60.58;100112.33;1724287;83;21182;-55
2021/01/13 02:30:13;;;;;;;17.62;9.83;;;;;;;0.96;61.17;100101.45;1706486;84;21272;-55
2021/01/13 02:33:24;;;;;;;15.80;8.88;;;;;;;0.91;62.15;100096.05;1706853;84;21449;-55
2021/01/13 02:37:09;;;;;;;17.05;9.18;;;;;;;0.86;62.65;100083.42;1710486;83;21205;-53
2021/01/13 02:40:22;;;;;;;21.70;11.75;;;;;;;0.85;63.14;100065.55;1682271;85;21411;-54
2021/01/13 02:43:27;;;;;;;20.77;10.78;;;;;;;0.78;68.96;100045.46;1724232;83;21230;-54
2021/01/13 02:47:05;;;;;;;15.98;9.45;;;;;;;0.64;70.57;100041.19;1724286;83;21221;-55
2021/01/13 02:50:12;;;;;;;18.80;11.45;;;;;;;0.57;68.98;100039.95;1682545;85;21851;-55
2021/01/13 02:53:26;;;;;;;18.42;10.55;;;;;;;0.44;68.95;100044.61;1710455;83;21595;-54
2021/01/13 02:56:40;;;;;;;19.45;11.40;;;;;;;0.31;69.17;100060.00;1724449;83;21201;-54
2021/01/13 02:59:46;;;;;;;75.83;27.27;;;;;;;0.31;69.03;100060.47;1724275;83;22039;-55
2021/01/13 03:02:53;;;;;;;135.78;40.60;;;;;;;0.40;68.73;100058.44;1724118;83;21356;-55
2021/01/13 03:06:00;;;;;;;158.87;50.28;;;;;;;0.41;68.19;100058.31;1724133;83;21266;-56
2021/01/13 03:09:14;;;;;;;129.50;49.70;;;;;;;0.40;68.01;100057.09;1724269;83;21386;-55
2021/01/13 03:12:28;;;;;;;127.27;45.88;;;;;;;0.28;67.71;100046.78;1724198;83;21382;-55
2021/01/13 03:15:36;;;;;;;84.17;33.45;;;;;;;0.05;68.68;100030.20;1715612;80;21264;-55
2021/01/13 03:19:04;;;;;;;80.47;32.25;;;;;;;-0.06;69.66;100011.34;1703191;84;21888;-55
2021/01/13 03:22:13;;;;;;;47.95;22.62;;;;;;;-0.03;69.85;100001.69;1703121;84;21220;-55
2021/01/13 03:25:20;;;;;;;79.17;32.20;;;;;;;-0.11;69.87;100007.66;1702952;84;21836;-56
2021/01/13 03:28:26;;;;;;;59.33;27.52;;;;;;;-0.18;72.18;99996.16;1703027;84;21438;-55
2021/01/13 03:31:34;;;;;;;43.70;20.10;;;;;;;-0.26;71.91;99990.03;1703085;84;21303;-55
2021/01/13 03:34:48;;;;;;;34.90;15.95;;;;;;;-0.26;71.65;99973.89;1703476;84;21371;-55
2021/01/13 03:38:06;;;;;;;20.60;10.55;;;;;;;-0.17;71.08;99954.83;1703213;84;21419;-55
2021/01/13 03:41:13;;;;;;;24.30;12.00;;;;;;;-0.21;70.91;99939.92;1703169;84;21331;-55
2021/01/13 03:44:19;;;;;;;20.45;11.25;;;;;;;-0.21;72.09;99925.97;1702979;84;21378;-55
2021/01/13 03:47:38;;;;;;;20.92;11.00;;;;;;;-0.15;72.69;99921.95;1703110;84;21359;-55
2021/01/13 03:50:46;;;;;;;20.12;11.30;;;;;;;-0.12;71.83;99908.27;1703096;84;21351;-54
2021/01/13 03:53:51;;;;;;;16.20;8.93;;;;;;;-0.21;71.42;99880.25;1703208;84;21228;-56
2021/01/13 03:57:09;;;;;;;21.57;11.57;;;;;;;-0.23;71.30;99857.16;1683802;84;21195;-55
2021/01/13 04:00:17;;;;;;;20.32;10.05;;;;;;;-0.26;71.21;99839.92;1703356;84;21410;-54
2021/01/13 04:03:34;;;;;;;18.95;10.08;;;;;;;-0.40;72.95;99832.09;1703163;84;21702;-55
2021/01/13 04:06:50;;;;;;;16.50;10.13;;;;;;;-0.45;73.59;99843.21;1703133;84;21322;-55
2021/01/13 04:09:58;;;;;;;23.35;12.30;;;;;;;-0.50;73.76;99856.63;1702944;84;21366;-56
2021/01/13 04:13:15;;;;;;;15.83;9.88;;;;;;;-0.52;75.24;99829.00;1703022;84;21370;-55
2021/01/13 04:16:21;;;;;;;13.68;8.65;;;;;;;-0.55;76.82;99809.95;1704558;81;21237;-56
2021/01/13 04:19:28;;;;;;;11.48;7.83;;;;;;;-0.54;76.48;99814.34;1703152;84;21196;-57
2021/01/13 04:22:36;;;;;;;14.95;9.00;;;;;;;-0.51;75.85;99776.98;1702878;84;21346;-56
2021/01/13 04:25:42;;;;;;;11.80;7.37;;;;;;;-0.54;77.10;99768.65;1703095;84;21423;-56
2021/01/13 04:28:48;;;;;;;15.05;9.55;;;;;;;-0.47;77.73;99760.96;1703002;84;21212;-57
2021/01/13 04:31:55;;;;;;;17.12;8.75;;;;;;;-0.41;77.76;99742.99;1703055;84;21188;-57
2021/01/13 04:35:01;;;;;;;14.85;8.20;;;;;;;-0.36;77.08;99709.88;1703106;84;21252;-57
2021/01/13 04:38:07;;;;;;;12.73;7.72;;;;;;;-0.51;76.63;99704.41;1702884;84;21208;-56
2021/01/13 04:41:22;;;;;;;15.32;8.63;;;;;;;-0.69;77.08;99695.98;1703015;84;21204;-57
2021/01/13 04:44:27;;;;;;;14.50;9.20;;;;;;;-0.74;76.59;99672.66;1703069;84;21204;-54
2021/01/13 04:47:38;;;;;;;12.45;7.85;;;;;;;-0.81;76.81;99667.90;1702981;84;21343;-56
2021/01/13 04:50:47;;;;;;;11.57;7.67;;;;;;;-0.81;76.50;99692.08;1703041;84;21193;-57
2021/01/13 04:53:52;;;;;;;25.95;13.20;;;;;;;-0.93;76.35;99691.20;1702579;84;21271;-56
2021/01/13 04:57:26;;;;;;;47.23;17.92;;;;;;;-0.84;76.28;99678.89;1702579;84;21252;-56
2021/01/13 05:01:28;;;;;;;51.95;19.48;;;;;;;-0.85;74.99;99686.08;1702833;84;21354;-56
2021/01/13 05:04:55;;;;;;;69.45;23.07;;;;;;;-0.84;74.25;99718.67;1702706;84;21614;-56
2021/01/13 05:08:32;;;;;;;54.45;17.60;;;;;;;-0.75;73.93;99717.11;1702758;84;21362;-58
2021/01/13 05:11:48;;;;;;;68.47;24.67;;;;;;;-0.62;73.52;99684.27;1703079;84;21272;-56
2021/01/13 05:14:54;;;;;;;45.80;18.02;;;;;;;-0.55;74.41;99665.30;1702934;84;21421;-57
2021/01/13 05:18:13;;;;;;;52.73;18.65;;;;;;;-0.46;74.35;99690.12;1686486;84;21226;-56
2021/01/13 05:21:27;;;;;;;20.15;10.25;;;;;;;-0.42;74.06;99686.19;1705715;84;21422;-55
2021/01/13 05:24:35;;;;;;;18.87;10.50;;;;;;;-0.49;73.04;99695.23;1705735;84;21236;-57
2021/01/13 05:28:04;;;;;;;25.48;14.33;;;;;;;-0.52;72.81;99708.92;1705091;84;21653;-56
2021/01/13 05:31:12;;;;;;;14.38;7.97;;;;;;;-0.42;72.21;99710.38;1705497;84;21247;-56
2021/01/13 05:34:21;;;;;;;14.23;8.60;;;;;;;-0.32;71.53;99700.61;1705948;84;21401;-56
2021/01/13 05:37:37;;;;;;;10.60;6.47;;;;;;;-0.23;71.15;99688.61;1705744;84;21338;-57
2021/01/13 05:40:58;;;;;;;13.65;7.03;;;;;;;-0.13;70.59;99686.03;1686545;84;21768;-57
2021/01/13 05:44:04;;;;;;;9.95;6.75;;;;;;;-0.06;70.05;99684.05;1697223;84;21284;-57
2021/01/13 05:47:12;;;;;;;10.18;5.83;;;;;;;-0.04;69.81;99684.78;1704603;84;21196;-57
2021/01/13 05:50:18;;;;;;;9.00;5.67;;;;;;;0.01;69.56;99679.02;1704845;84;21510;-57
2021/01/13 05:53:22;;;;;;;12.80;6.85;;;;;;;0.02;69.39;99651.13;1690327;84;21215;-58
2021/01/13 05:56:29;;;;;;;13.72;7.67;;;;;;;0.04;69.23;99651.86;1704930;84;21750;-58
2021/01/13 05:59:38;;;;;;;13.53;7.22;;;;;;;0.06;69.27;99637.80;1704336;84;21907;-59
2021/01/13 06:02:44;;;;;;;11.73;6.33;;;;;;;0.09;69.27;99626.78;1705163;84;21346;-60
2021/01/13 06:05:58;;;;;;;11.83;6.60;;;;;;;0.08;69.67;99621.52;1700904;84;21783;-59
2021/01/13 06:09:12;;;;;;;11.22;6.42;;;;;;;0.06;69.93;99638.28;1705653;84;21375;-58
2021/01/13 06:12:26;;;;;;;10.90;6.65;;;;;;;0.03;70.41;99656.38;1705913;84;21351;-58
2021/01/13 06:15:35;;;;;;;11.05;7.35;;;;;;;0.10;70.03;99647.30;1705605;84;21296;-59
2021/01/13 06:18:45;;;;;;;13.50;6.25;;;;;;;0.02;69.81;99632.30;1702896;81;21379;-58
2021/01/13 06:21:56;;;;;;;12.10;6.90;;;;;;;-0.02;69.64;99620.92;1684917;84;21382;-58
2021/01/13 06:25:07;;;;;;;12.23;6.72;;;;;;;0.00;69.71;99618.14;1684616;84;21204;-57
2021/01/13 06:28:50;;;;;;;12.75;7.53;;;;;;;0.03;69.61;99599.53;1675264;85;21232;-60
2021/01/13 06:32:00;;;;;;;16.90;8.93;;;;;;;0.05;69.60;99590.34;1689912;84;21216;-60
2021/01/13 06:35:36;;;;;;;11.65;5.83;;;;;;;0.08;69.77;99588.73;1682200;84;21212;-59
2021/01/13 06:38:58;;;;;;;12.45;7.05;;;;;;;0.12;69.40;99573.19;1674678;85;21213;-59
2021/01/13 06:42:07;;;;;;;10.05;5.40;;;;;;;0.11;69.35;99560.25;1674777;85;21212;-59
2021/01/13 06:45:17;;;;;;;16.80;7.40;;;;;;;0.02;78.22;99559.66;1682150;82;21753;-59
2021/01/13 06:48:23;;;;;;;45.45;18.95;;;;;;;0.02;79.04;99562.36;1674486;85;21280;-60
2021/01/13 06:51:30;;;;;;;41.08;19.90;;;;;;;0.05;78.60;99530.33;1656143;85;21413;-61
2021/01/13 06:54:36;;;;;;;16.82;7.83;;;;;;;0.09;77.73;99545.20;1678443;84;21745;-59
2021/01/13 06:57:42;;;;;;;14.90;7.28;;;;;;;0.13;77.12;99551.53;1648128;87;21216;-59
2021/01/13 07:00:49;;;;;;;14.18;7.55;;;;;;;0.16;76.19;99545.89;1681090;85;21752;-58
2021/01/13 07:03:54;;;;;;;16.73;7.87;;;;;;;0.19;75.25;99533.52;1648559;86;21583;-58
2021/01/13 07:07:18;;;;;;;14.68;7.28;;;;;;;0.22;74.34;99507.72;1700270;84;21240;-60
2021/01/13 07:10:24;;;;;;;12.23;6.53;;;;;;;0.25;73.63;99482.37;1710056;84;21411;-60
2021/01/13 07:13:29;;;;;;;11.40;5.60;;;;;;;0.31;72.47;99436.08;1657051;85;21228;-60
2021/01/13 07:16:36;;;;;;;15.05;5.20;;;;;;;0.30;71.30;99441.98;1691247;84;21208;-60
2021/01/13 07:19:44;;;;;;;10.78;5.97;;;;;;;0.29;70.41;99436.22;1708053;81;21285;-61
2021/01/13 07:22:49;;;;;;;10.85;5.65;;;;;;;0.29;69.67;99421.41;1727717;83;21372;-58
2021/01/13 07:25:56;;;;;;;12.73;6.30;;;;;;;0.32;69.11;99396.09;1729207;82;21339;-58
2021/01/13 07:29:06;;;;;;;12.20;6.08;;;;;;;0.37;68.79;99386.61;1727684;83;21383;-59
2021/01/13 07:32:14;;;;;;;13.62;8.20;;;;;;;0.41;68.18;99384.02;1727834;83;21339;-59
2021/01/13 07:35:20;;;;;;;10.65;6.78;;;;;;;0.35;68.93;99364.35;1723098;83;21272;-61
2021/01/13 07:38:27;;;;;;;19.65;12.80;;;;;;;0.34;69.19;99373.91;1714003;83;21240;-60
2021/01/13 07:41:47;;;;;;;11.63;7.05;;;;;;;0.36;68.47;99392.98;1719071;83;21287;-61
2021/01/13 07:44:53;;;;;;;12.98;6.80;;;;;;;0.36;67.58;99393.47;1727864;83;21726;-61
2021/01/13 07:48:24;;;;;;;14.13;7.30;;;;;;;0.30;67.39;99419.11;1727203;83;21205;-60
2021/01/13 07:51:29;;;;;;;8.63;5.70;;;;;;;0.33;67.12;99413.45;1722985;82;21189;-60
2021/01/13 07:54:42;;;;;;;20.17;10.72;;;;;;;0.50;66.90;99418.66;1704989;83;21849;-59
2021/01/13 07:57:54;;;;;;;9.03;5.55;;;;;;;0.51;67.05;99407.76;1711304;83;21197;-61
2021/01/13 08:01:20;;;;;;;9.38;5.45;;;;;;;0.44;67.79;99400.38;1716331;83;21281;-60
2021/01/13 08:04:37;;;;;;;9.78;6.03;;;;;;;0.37;67.75;99396.51;1723294;83;21244;-60
2021/01/13 08:07:46;;;;;;;8.28;5.15;;;;;;;0.38;67.52;99400.41;1726189;83;21341;-61
2021/01/13 08:10:53;;;;;;;8.58;4.97;;;;;;;0.30;67.58;99395.37;1728408;83;21201;-58
2021/01/13 08:14:06;;;;;;;9.73;5.35;;;;;;;0.24;67.97;99394.56;1678268;84;21773;-60
2021/01/13 08:17:29;;;;;;;15.32;8.13;;;;;;;0.30;67.90;99390.84;1699035;84;21236;-60
2021/01/13 08:20:57;;;;;;;12.68;7.78;;;;;;;0.47;67.16;99373.18;1709107;82;21386;-62
2021/01/13 08:27:12;;;;;;;19.00;7.45;;;;;;;0.58;66.33;99370.38;1702779;84;21196;-60
2021/01/13 08:30:18;;;;;;;15.72;8.60;;;;;;;0.57;65.66;99364.12;1702436;84;21203;-61
2021/01/13 08:33:34;;;;;;;14.05;8.30;;;;;;;0.64;65.66;99361.26;1683702;83;21268;-60
2021/01/13 08:36:40;;;;;;;12.15;7.75;;;;;;;0.73;64.83;99351.50;1640261;87;21256;-60
2021/01/13 08:39:50;;;;;;;13.45;6.75;;;;;;;0.70;64.74;99355.83;1693809;83;21401;-61
2021/01/13 08:43:14;;;;;;;11.88;6.60;;;;;;;0.74;64.37;99351.36;1686156;84;21725;-59
2021/01/13 08:46:24;;;;;;;13.08;7.30;;;;;;;0.69;65.44;99332.08;1687328;84;21377;-61
2021/01/13 08:49:35;;;;;;;15.00;6.55;;;;;;;0.81;65.27;99347.63;1674626;85;21409;-61
2021/01/13 08:52:49;;;;;;;12.78;7.75;;;;;;;0.88;65.40;99336.63;1698345;84;21371;-61
2021/01/13 08:56:00;;;;;;;10.65;6.20;;;;;;;0.83;65.44;99315.50;1685987;84;21236;-60
2021/01/13 08:59:05;;;;;;;14.10;7.75;;;;;;;0.83;65.59;99318.68;1682201;84;21204;-60
2021/01/13 09:02:24;;;;;;;10.88;6.60;;;;;;;0.86;65.43;99318.40;1694567;84;21280;-61
2021/01/13 09:05:36;;;;;;;10.90;6.67;;;;;;;0.90;65.24;99309.92;1667031;85;21219;-61
2021/01/13 09:08:44;;;;;;;14.05;8.58;;;;;;;0.98;64.85;99302.47;1643182;85;21829;-60
2021/01/13 09:11:51;;;;;;;13.50;7.92;;;;;;;1.03;64.72;99289.42;1693640;84;21208;-63
2021/01/13 09:15:22;;;;;;;13.72;7.47;;;;;;;1.04;64.53;99278.51;1684532;84;21239;-61
2021/01/13 09:18:29;;;;;;;18.05;11.40;;;;;;;0.92;64.70;99269.37;1692727;84;21244;-61
2021/01/13 09:21:43;;;;;;;14.05;8.88;;;;;;;0.71;70.58;99270.86;1694807;82;21318;-65
2021/01/13 09:24:50;;;;;;;27.17;12.30;;;;;;;0.71;70.60;99249.80;1738204;82;21955;-60
2021/01/13 09:28:08;;;;;;;54.35;20.68;;;;;;;0.67;68.71;99249.72;1722288;82;21368;-62
2021/01/13 09:31:23;;;;;;;44.20;15.58;;;;;;;0.61;67.81;99249.80;1710008;82;21199;-61
2021/01/13 09:34:38;;;;;;;45.85;16.67;;;;;;;0.52;72.59;99270.84;1711157;83;21744;-59
2021/01/13 09:37:48;;;;;;;24.60;10.23;;;;;;;0.60;73.79;99272.34;1716867;82;21709;-59
2021/01/13 09:41:06;;;;;;;53.68;21.57;;;;;;;0.70;72.12;99261.58;1685921;85;21205;-59
2021/01/13 09:44:20;;;;;;;27.75;12.35;;;;;;;0.77;72.01;99260.00;1697673;84;21212;-59
2021/01/13 09:47:33;;;;;;;28.77;11.55;;;;;;;0.81;70.93;99266.83;1723401;82;21220;-59
2021/01/13 09:50:37;;;;;;;15.00;7.65;;;;;;;0.91;69.50;99245.61;1702750;83;21231;-62
2021/01/13 09:53:45;;;;;;;15.53;7.85;;;;;;;0.99;68.53;99230.94;1708896;84;21239;-60
2021/01/13 09:56:50;;;;;;;13.53;7.80;;;;;;;0.99;67.62;99228.73;1709201;84;21740;-61
2021/01/13 10:00:08;;;;;;;13.60;8.28;;;;;;;0.98;67.58;99245.38;1683655;82;21764;-61
2021/01/13 10:03:13;;;;;;;15.80;8.55;;;;;;;0.88;67.08;99228.39;1680597;85;21208;-60
2021/01/13 10:06:28;;;;;;;14.98;8.33;;;;;;;0.77;67.02;99227.20;1679589;85;21515;-60
2021/01/13 10:09:34;;;;;;;14.50;8.65;;;;;;;0.80;68.26;99226.91;1682049;84;21212;-60
2021/01/13 10:12:50;;;;;;;11.97;7.70;;;;;;;0.75;68.45;99206.28;1696844;84;21192;-61
2021/01/13 10:15:58;;;;;;;11.90;7.25;;;;;;;0.90;68.17;99191.41;1693328;84;21208;-60
2021/01/13 10:19:08;;;;;;;15.10;8.58;;;;;;;0.85;67.31;99200.41;1694676;83;21320;-59
2021/01/13 10:22:13;;;;;;;11.95;7.45;;;;;;;0.68;67.60;99209.19;1695452;82;21253;-60
2021/01/13 10:25:21;;;;;;;11.93;7.80;;;;;;;0.72;67.76;99191.77;1701327;84;21204;-60
2021/01/13 10:28:27;;;;;;;11.60;7.28;;;;;;;0.68;67.51;99176.05;1682206;84;21653;-60
2021/01/13 10:31:32;;;;;;;12.00;7.22;;;;;;;0.69;68.10;99173.20;1689255;84;21224;-60
2021/01/13 10:34:38;;;;;;;12.05;7.45;;;;;;;0.76;68.61;99169.45;1695610;84;21777;-60
2021/01/13 10:37:50;;;;;;;11.80;7.05;;;;;;;0.75;68.43;99166.38;1702547;84;21923;-60
2021/01/13 10:40:55;;;;;;;12.13;6.45;;;;;;;0.86;67.74;99126.68;1683838;84;21198;-61
2021/01/13 10:44:01;;;;;;;10.35;6.72;;;;;;;0.96;67.19;99132.91;1702902;84;21331;-61
2021/01/13 10:47:18;;;;;;;;;;;;;;;0.99;66.62;99135.30;1704366;84;21306;-60
2021/01/13 10:50:44;;;;;;;13.20;7.80;;;;;;;1.00;66.50;99153.15;1666826;84;20230;-61
2021/01/13 10:53:48;;;;;;;11.78;6.85;;;;;;;1.03;66.23;99132.65;1672309;84;21236;-61
2021/01/13 10:56:55;;;;;;;10.82;7.17;;;;;;;0.99;65.82;99159.55;1679487;85;21268;-60
2021/01/13 11:00:17;;;;;;;12.30;7.22;;;;;;;0.92;65.84;99136.86;1699181;83;21260;-62
2021/01/13 11:03:23;;;;;;;10.82;7.00;;;;;;;0.92;65.75;99123.39;1666987;86;21222;-59
2021/01/13 11:06:30;;;;;;;11.22;7.62;;;;;;;0.78;65.99;99130.59;1666340;85;21265;-60
2021/01/13 11:09:38;;;;;;;12.53;7.17;;;;;;;0.84;66.25;99132.70;1702352;83;21736;-60
2021/01/13 11:12:44;;;;;;;13.90;8.85;;;;;;;0.86;67.48;99145.53;1669157;86;21218;-61
2021/01/13 11:15:53;;;;;;;14.28;8.73;;;;;;;0.99;68.29;99130.40;1669523;85;21213;-61
2021/01/13 11:18:59;;;;;;;11.38;7.28;;;;;;;1.06;67.15;99135.56;1674472;84;21227;-62
2021/01/13 11:22:20;;;;;;;13.22;8.05;;;;;;;0.76;66.44;99108.34;1659461;85;21786;-61
2021/01/13 11:25:39;;;;;;;13.83;8.60;;;;;;;0.39;66.80;99104.73;1675329;84;21236;-60
2021/01/13 11:28:47;;;;;;;12.75;8.13;;;;;;;0.28;67.42;99099.51;1703062;84;21227;-61
2021/01/13 11:31:53;;;;;;;15.72;8.43;;;;;;;0.37;70.32;99081.15;1693063;83;21741;-62
2021/01/13 11:35:01;;;;;;;12.30;7.67;;;;;;;0.34;71.79;99096.23;1690410;84;21228;-62
2021/01/13 11:39:01;;;;;;;10.68;7.53;;;;;;;0.34;72.14;99067.98;1691496;84;21232;-59
2021/01/13 11:42:33;;;;;;;12.50;7.83;;;;;;;0.48;71.61;99063.98;1688627;84;21772;-61
2021/01/13 11:45:39;;;;;;;11.08;7.15;;;;;;;0.65;70.08;99071.33;1691053;84;21200;-60
2021/01/13 11:49:01;;;;;;;12.53;8.08;;;;;;;0.80;69.09;99073.41;1690141;84;21212;-61
2021/01/13 11:52:09;;;;;;;12.58;6.92;;;;;;;0.83;68.35;99050.22;1696387;83;21251;-61
2021/01/13 11:55:18;;;;;;;11.90;7.33;;;;;;;0.85;67.56;99056.31;1639486;85;21852;-59
2021/01/13 11:58:25;;;;;;;12.68;7.92;;;;;;;0.77;68.58;99052.16;1690993;84;21840;-58
2021/01/13 12:01:34;;;;;;;12.88;7.33;;;;;;;0.77;71.17;99070.16;1687104;84;21243;-58
2021/01/13 12:04:51;;;;;;;12.55;7.62;;;;;;;0.66;72.36;99043.41;1698439;84;21236;-60
2021/01/13 12:08:12;;;;;;;15.80;7.47;;;;;;;0.56;72.37;99051.99;1697446;84;21553;-56
2021/01/13 12:11:18;;;;;;;10.43;6.95;;;;;;;0.56;71.98;99056.03;1675426;85;21231;-57
2021/01/13 12:14:23;;;;;;;9.98;6.58;;;;;;;0.50;70.72;99033.25;1695476;84;21510;-56
2021/01/13 12:17:28;;;;;;;9.75;6.90;;;;;;;0.46;70.23;99047.98;1704489;84;21263;-56
2021/01/13 12:20:41;;;;;;;10.88;6.50;;;;;;;0.46;70.02;99039.08;1699242;84;21263;-57
2021/01/13 12:23:50;;;;;;;12.70;7.28;;;;;;;0.34;69.52;99045.11;1704905;84;21240;-58
2021/01/13 12:26:56;;;;;;;11.97;7.00;;;;;;;0.12;70.63;99036.02;1685586;82;21192;-58
2021/01/13 12:30:20;;;;;;;11.53;6.67;;;;;;;-0.07;73.26;99016.72;1701442;84;21243;-60
2021/01/13 12:33:26;;;;;;;11.97;7.22;;;;;;;-0.20;76.62;99026.05;1696959;82;21197;-57
2021/01/13 12:36:37;;;;;;;11.45;7.33;;;;;;;-0.30;79.53;99016.63;1687488;83;21209;-58
2021/01/13 12:39:45;;;;;;;11.43;6.95;;;;;;;-0.36;81.14;99025.27;1676959;84;21264;-57
2021/01/13 12:42:50;;;;;;;11.18;6.47;;;;;;;-0.32;80.91;99015.91;1676671;85;21204;-57
2021/01/13 12:45:56;;;;;;;11.48;7.47;;;;;;;-0.25;80.45;99008.14;1696032;82;21219;-57
2021/01/13 12:49:01;;;;;;;14.63;6.85;;;;;;;-0.19;79.63;99002.22;1681364;84;21752;-56
2021/01/13 12:52:08;;;;;;;15.25;7.25;;;;;;;-0.07;78.44;98997.89;1688452;82;21294;-58
2021/01/13 12:55:15;;;;;;;12.07;7.87;;;;;;;-0.13;77.05;98990.89;1691246;84;21244;-58
2021/01/13 12:58:21;;;;;;;12.88;7.67;;;;;;;-0.18;75.45;98991.33;1685246;84;21249;-59
2021/01/13 13:01:28;;;;;;;12.18;7.62;;;;;;;-0.27;74.57;99006.11;1676915;85;21379;-56
2021/01/13 13:04:43;;;;;;;12.25;7.45;;;;;;;-0.32;73.80;99000.30;1684586;82;21608;-57
2021/01/13 13:07:48;;;;;;;13.83;8.55;;;;;;;-0.36;73.06;98986.78;1697432;84;21196;-57
2021/01/13 13:10:55;;;;;;;12.63;7.83;;;;;;;-0.40;72.47;99010.91;1678065;82;21204;-57
2021/01/13 13:14:02;;;;;;;14.85;8.38;;;;;;;-0.47;72.62;99007.94;1676793;84;21236;-57
2021/01/13 13:17:08;;;;;;;12.18;7.75;;;;;;;-0.41;72.20;98999.78;1686376;84;21201;-57
2021/01/13 13:20:17;;;;;;;12.75;7.53;;;;;;;-0.34;71.97;99005.83;1725590;82;21219;-58
2021/01/13 13:23:21;;;;;;;10.38;6.37;;;;;;;-0.33;71.64;99003.48;1685593;82;21259;-57
2021/01/13 13:26:26;;;;;;;13.48;7.42;;;;;;;-0.34;71.07;98998.25;1666639;82;21352;-57
2021/01/13 13:29:32;;;;;;;12.25;7.60;;;;;;;-0.41;70.94;99001.13;1699866;84;21195;-58
2021/01/13 13:32:37;;;;;;;13.60;7.92;;;;;;;-0.40;70.68;98993.45;1680261;85;21864;-57
2021/01/13 13:35:42;;;;;;;10.48;6.85;;;;;;;-0.44;70.56;98995.55;1737457;82;21205;-58
2021/01/13 13:38:51;;;;;;;12.50;8.00;;;;;;;-0.40;70.30;99002.84;1725715;82;21851;-58
2021/01/13 13:41:56;;;;;;;11.93;6.80;;;;;;;-0.50;70.17;99004.67;1722431;82;21197;-57
2021/01/13 13:45:05;;;;;;;14.80;8.80;;;;;;;-0.49;70.27;99015.80;1721268;82;21216;-57
2021/01/13 13:48:13;;;;;;;11.43;7.12;;;;;;;-0.44;70.00;99016.20;1714939;82;21279;-57
2021/01/13 13:51:18;;;;;;;12.15;7.55;;;;;;;-0.43;69.75;98996.41;1736591;82;21542;-58
2021/01/13 13:54:24;;;;;;;13.90;7.95;;;;;;;-0.53;69.66;98985.66;1736981;82;21232;-57
2021/01/13 13:57:34;;;;;;;15.25;6.67;;;;;;;-0.60;69.62;98983.66;1735481;82;21228;-59
2021/01/13 14:00:43;;;;;;;37.38;26.33;;;;;;;-0.60;69.79;98980.96;1728398;82;21212;-58
2021/01/13 14:03:49;;;;;;;14.50;8.98;;;;;;;-0.59;69.69;98975.97;1719806;82;21251;-59
2021/01/13 14:06:55;;;;;;;12.45;7.65;;;;;;;-0.56;69.67;98979.71;1707900;84;21232;-59
2021/01/13 14:10:00;;;;;;;15.75;9.35;;;;;;;-0.55;69.51;98982.73;1707948;84;21236;-57
2021/01/13 14:13:05;;;;;;;12.05;7.22;;;;;;;-0.59;69.56;98978.17;1707568;84;21746;-58
2021/01/13 14:16:10;;;;;;;13.72;8.75;;;;;;;-0.65;69.62;98987.28;1707219;84;21800;-58
2021/01/13 14:19:17;;;;;;;16.17;8.85;;;;;;;-0.71;69.57;98999.41;1707475;84;21574;-58
2021/01/13 14:22:23;;;;;;;11.63;7.80;;;;;;;-0.77;69.63;98990.58;1706384;84;21888;-57
2021/01/13 14:25:29;;;;;;;11.38;7.72;;;;;;;-0.76;69.60;98991.44;1706834;84;21773;-58
2021/01/13 14:28:34;;;;;;;14.03;7.75;;;;;;;-0.70;69.61;98989.53;1702670;82;21236;-56
2021/01/13 14:31:47;;;;;;;11.88;7.60;;;;;;;-0.66;69.54;98990.45;1675080;85;21172;-57
2021/01/13 14:34:53;;;;;;;12.50;7.97;;;;;;;-0.62;69.31;98992.38;1653361;84;21781;-58
2021/01/13 14:37:59;;;;;;;23.40;13.62;;;;;;;-0.65;69.00;98986.77;1656273;86;21218;-57
2021/01/13 14:41:04;;;;;;;19.50;12.68;;;;;;;-0.67;68.87;98994.63;1667043;84;21214;-58
2021/01/13 14:44:10;;;;;;;15.20;10.08;;;;;;;-0.66;68.92;99002.54;1657868;86;21548;-59
2021/01/13 14:47:19;;;;;;;15.23;9.30;;;;;;;-0.61;68.79;99006.15;1689296;85;21800;-59
2021/01/13 14:50:25;;;;;;;14.35;10.23;;;;;;;-0.63;68.36;98993.34;1672543;85;21239;-57
2021/01/13 14:53:31;;;;;;;17.25;10.82;;;;;;;-0.67;69.08;98997.30;1694033;84;21312;-58